Startpagina
METAR-TAF:

METAR-TAF

Vliegvelden :

Den Helder, Nederland

Vliegveld de Kooy

breedte: 52-55N, lengte: 004-47E, hoogte: 0 m

Actueel weer

Dit bericht is 24 minuten geleden gemaakt, om 18:55 UTC
Wind 4 kt uit het oostnoordoosten, variërend tussen het noorden en het oostnoordoosten
Temperatuur 18°C
Vochtigheid 77%
Druk 1015 hPa
Zicht 10 km of meer
geen wolken onder 1500 m en geen cumulonimbus

METAR: EHKD 221855Z AUTO 03005KT 360V060 9999 OVC200 18/14 Q1015 BLU 06004KT CAVOK

Tijdstip: 21:19 (19:19 UTC)

Verwachting

Dit bericht is 3 uur en het 13 minuten geleden gemaakt, om 16:06 UTC
Verwachting geldig van 22 om 17 UTC tot 23 om 05 UTC
Wind 4 kt uit variabele richting
Zicht 10 km of meer
geen wolken onder 1500 m en geen cumulonimbus
Wijzigt naar
van 22 om 19 UTC tot 22 om 21 UTC
Wind 7 kt uit het oostnoordoosten
Wijzigt naar
van 22 om 21 UTC tot 23 om 01 UTC
Wind 8 kt uit het zuidzuidoosten

TAF: EHKD 221606Z 2217/2305 VRB04KT CAVOK BECMG 2219/2221 07007KT BECMG 2221/2301 16008KT

Waarnemingen en weersverwachtingen van meer dan 4000 vliegvelden (METAR en TAF).

De beschikbare stations zijn de gele en rode punten op de kaart.

Ga met uw muis naar het station om de naam te zien.

Klik dan om waarnemingen en weersverwachtingen te zien.

kaart wijzigen: klik op de groene knoppen met een zwart kruis om in te zoomen, op de groene knop met een streepje om uit te zoomen of op de groene pijlen voor aangrenzende kaarten.


METAR-TAF: